createdAt,value
2019-05-07T00:02:17.839Z,4.80
2019-05-07T00:04:46.761Z,4.42
2019-05-07T00:07:15.642Z,4.45
2019-05-07T00:09:44.572Z,4.10
2019-05-07T00:12:13.440Z,4.30
2019-05-07T00:14:42.990Z,4.95
2019-05-07T00:17:13.140Z,4.65
2019-05-07T00:19:43.203Z,4.50
2019-05-07T00:22:12.640Z,5.10
2019-05-07T00:24:42.652Z,4.70
2019-05-07T00:27:13.091Z,4.25
2019-05-07T00:29:42.943Z,4.83
2019-05-07T00:32:12.274Z,4.40
2019-05-07T00:34:42.889Z,4.50
2019-05-07T00:37:13.582Z,4.72
2019-05-07T00:39:50.187Z,4.47
2019-05-07T00:42:22.036Z,4.28
2019-05-07T00:45:13.214Z,4.53
2019-05-07T00:47:29.301Z,4.28
2019-05-07T00:49:59.763Z,4.12
2019-05-07T00:52:28.786Z,4.80
2019-05-07T00:54:57.675Z,4.50
2019-05-07T00:57:26.624Z,4.78
2019-05-07T00:59:55.522Z,4.60
2019-05-07T01:02:24.435Z,4.25
2019-05-07T01:04:53.424Z,4.25
2019-05-07T01:07:23.037Z,4.20
2019-05-07T01:09:52.516Z,4.17
2019-05-07T01:12:22.248Z,4.83
2019-05-07T01:14:52.826Z,4.72
2019-05-07T01:17:22.692Z,4.72
2019-05-07T01:19:53.318Z,4.45
2019-05-07T01:22:22.466Z,4.90
2019-05-07T01:24:52.655Z,4.17
2019-05-07T01:27:22.635Z,4.65
2019-05-07T01:29:52.862Z,4.72
2019-05-07T01:32:23.534Z,4.37
2019-05-07T01:35:03.170Z,4.83
2019-05-07T01:37:32.594Z,4.85
2019-05-07T01:40:03.064Z,3.95
2019-05-07T01:42:32.794Z,4.75
2019-05-07T01:45:02.698Z,4.62
2019-05-07T01:47:33.140Z,4.95
2019-05-07T01:50:03.065Z,4.75
2019-05-07T01:52:33.203Z,4.75
2019-05-07T01:55:03.231Z,4.58
2019-05-07T01:57:32.745Z,4.97
2019-05-07T02:00:02.559Z,5.03
2019-05-07T02:02:39.403Z,4.78
2019-05-07T02:05:13.007Z,4.50
2019-05-07T02:07:43.475Z,5.12
2019-05-07T02:10:26.196Z,4.78
2019-05-07T02:12:55.073Z,4.62
2019-05-07T02:15:24.012Z,5.00
2019-05-07T02:17:52.881Z,4.67
2019-05-07T02:20:22.518Z,5.05
2019-05-07T02:22:53.188Z,4.78
2019-05-07T02:25:22.306Z,4.55
2019-05-07T02:27:52.822Z,4.30
2019-05-07T02:30:23.913Z,4.53
2019-05-07T02:32:53.949Z,4.72
2019-05-07T02:35:23.655Z,4.15
2019-05-07T02:37:56.789Z,4.50
2019-05-07T02:40:29.368Z,4.22
2019-05-07T02:42:58.293Z,4.50
2019-05-07T02:45:28.744Z,4.08
2019-05-07T02:47:57.678Z,4.33
2019-05-07T02:50:34.324Z,4.28
2019-05-07T02:53:07.847Z,5.10
2019-05-07T02:55:43.520Z,4.42
2019-05-07T02:58:13.762Z,4.85
2019-05-07T03:00:43.454Z,5.20
2019-05-07T03:03:13.924Z,4.85
2019-05-07T03:05:43.521Z,4.65
2019-05-07T03:08:13.389Z,4.87
2019-05-07T03:10:43.443Z,4.85
2019-05-07T03:13:13.696Z,4.72
2019-05-07T03:15:43.793Z,4.95
2019-05-07T03:18:13.803Z,5.12
2019-05-07T03:20:45.144Z,4.90
2019-05-07T03:23:15.657Z,4.55
2019-05-07T03:25:49.097Z,4.53
2019-05-07T03:28:18.952Z,4.92
2019-05-07T03:31:07.826Z,4.55
2019-05-07T03:33:47.947Z,4.80
2019-05-07T03:36:17.852Z,4.78
2019-05-07T03:38:46.998Z,4.65
2019-05-07T03:41:15.875Z,5.08
2019-05-07T03:43:45.024Z,4.67
2019-05-07T03:46:15.473Z,4.85
2019-05-07T03:48:45.602Z,4.78
2019-05-07T03:51:14.480Z,4.58
2019-05-07T03:53:43.934Z,5.05
2019-05-07T03:56:13.414Z,4.67
2019-05-07T03:58:43.395Z,4.45
2019-05-07T04:01:13.470Z,4.70
2019-05-07T04:03:44.615Z,5.03
2019-05-07T04:06:13.448Z,5.25
2019-05-07T04:08:43.373Z,4.60
2019-05-07T04:11:13.991Z,4.90
2019-05-07T04:13:44.003Z,4.53
2019-05-07T04:16:13.888Z,4.97
2019-05-07T04:18:43.673Z,4.92
2019-05-07T04:21:13.948Z,4.67
2019-05-07T04:23:43.859Z,5.03
2019-05-07T04:26:33.671Z,4.85
2019-05-07T04:29:05.788Z,5.17
2019-05-07T04:31:35.298Z,4.50
2019-05-07T04:34:05.877Z,4.58
2019-05-07T04:36:35.855Z,5.08
2019-05-07T04:39:07.848Z,4.25
2019-05-07T04:41:36.881Z,4.72
2019-05-07T04:44:05.758Z,4.83
2019-05-07T04:46:34.688Z,4.55
2019-05-07T04:49:03.978Z,4.78
2019-05-07T04:51:37.855Z,4.92
2019-05-07T04:54:06.745Z,4.75
2019-05-07T04:56:35.673Z,4.40
2019-05-07T04:59:04.544Z,4.90
2019-05-07T05:01:35.056Z,4.17
2019-05-07T05:04:20.636Z,5.17
2019-05-07T05:06:34.532Z,4.67
2019-05-07T05:09:03.579Z,5.12
2019-05-07T05:11:33.523Z,4.47
2019-05-07T05:14:07.004Z,4.47
2019-05-07T05:16:33.452Z,4.53
2019-05-07T05:19:02.763Z,4.80
2019-05-07T05:21:45.380Z,4.62
2019-05-07T05:24:15.989Z,4.47
2019-05-07T05:26:44.913Z,4.53
2019-05-07T05:29:13.807Z,4.97
2019-05-07T05:31:42.718Z,4.95
2019-05-07T05:34:13.022Z,5.08
2019-05-07T05:36:42.635Z,4.87
2019-05-07T05:39:13.108Z,5.05
2019-05-07T05:41:44.299Z,4.08
2019-05-07T05:44:17.482Z,4.55
2019-05-07T05:49:14.431Z,4.17
2019-05-07T05:51:44.980Z,4.40
2019-05-07T05:54:24.796Z,4.65
2019-05-07T05:57:12.291Z,5.05
2019-05-07T05:59:59.168Z,3.77
2019-05-07T15:30:27.593Z,9.53
2019-05-07T15:32:59.199Z,9.28
2019-05-07T15:35:27.971Z,8.60
2019-05-07T15:37:57.023Z,8.63
2019-05-07T15:40:26.215Z,9.35
2019-05-07T15:42:54.814Z,8.48
2019-05-07T15:45:23.356Z,8.10
2019-05-07T15:47:53.520Z,8.65
2019-05-07T15:50:23.937Z,7.85
2019-05-07T15:52:58.366Z,8.30
2019-05-07T15:55:24.821Z,8.05
2019-05-07T15:57:53.621Z,8.70
2019-05-07T16:00:24.626Z,7.97
2019-05-07T16:03:02.524Z,8.85
2019-05-07T16:05:31.902Z,9.30
2019-05-07T16:08:01.661Z,8.25
2019-05-07T16:10:32.349Z,8.78
2019-05-07T16:13:01.303Z,8.45
2019-05-07T16:15:31.820Z,9.18
2019-05-07T16:18:04.387Z,9.33
2019-05-07T16:20:32.977Z,8.33
2019-05-07T16:23:14.058Z,9.20
2019-05-07T16:25:33.286Z,8.90
2019-05-07T16:28:04.718Z,7.42
2019-05-07T16:30:32.482Z,8.63
2019-05-07T16:33:02.129Z,8.85
2019-05-07T16:35:32.034Z,8.28
2019-05-07T16:38:00.939Z,6.92
2019-05-07T16:40:29.498Z,7.53
2019-05-07T16:42:58.151Z,9.40
2019-05-07T16:45:26.732Z,8.43
2019-05-07T16:47:55.256Z,9.08
2019-05-07T16:50:23.826Z,8.33
2019-05-07T16:52:52.627Z,9.20
2019-05-07T16:55:22.457Z,9.28
2019-05-07T16:58:08.972Z,9.08
2019-05-07T17:00:39.126Z,7.70
2019-05-07T17:03:09.244Z,8.98
2019-05-07T17:05:37.821Z,9.18
2019-05-07T17:08:07.925Z,8.25
2019-05-07T17:10:36.502Z,8.10
2019-05-07T17:13:05.039Z,8.60
2019-05-07T17:15:35.198Z,7.97
2019-05-07T17:18:03.749Z,8.30
2019-05-07T17:20:32.955Z,8.78
2019-05-07T17:23:02.932Z,8.70
2019-05-07T17:25:37.969Z,8.55
2019-05-07T17:28:07.118Z,8.10
2019-05-07T17:30:37.615Z,6.87
2019-05-07T17:33:15.937Z,6.80
2019-05-07T17:35:45.961Z,6.72
2019-05-07T17:38:14.182Z,6.85
2019-05-07T17:40:42.717Z,9.10
2019-05-07T17:43:12.307Z,8.98
2019-05-07T17:45:42.805Z,8.98
2019-05-07T17:48:12.293Z,8.10
2019-05-07T17:50:45.377Z,9.90
2019-05-07T17:53:13.951Z,8.23
2019-05-07T17:55:42.514Z,7.90
2019-05-07T17:58:12.927Z,7.70
2019-05-07T18:00:42.791Z,6.80
2019-05-07T18:03:29.338Z,8.03
2019-05-07T18:05:57.871Z,7.15
2019-05-07T18:08:26.464Z,6.70
2019-05-07T18:10:56.295Z,6.83
2019-05-07T18:13:24.884Z,6.33
2019-05-07T18:15:54.914Z,7.12
2019-05-07T18:18:23.541Z,6.83
2019-05-07T18:20:52.067Z,7.00
2019-05-07T18:23:22.292Z,6.83
2019-05-07T18:25:52.672Z,6.83
2019-05-07T18:28:22.691Z,6.17
2019-05-07T18:30:51.235Z,6.92
2019-05-07T18:33:22.137Z,7.62
2019-05-07T18:35:52.663Z,7.65
2019-05-07T18:38:22.366Z,7.40
2019-05-07T18:40:52.813Z,7.75
2019-05-07T18:43:22.657Z,6.72
2019-05-07T18:45:51.873Z,7.35
2019-05-07T18:48:22.412Z,7.03
2019-05-07T18:50:52.141Z,6.75
2019-05-07T18:53:22.691Z,7.20
2019-05-07T18:55:51.832Z,7.30
2019-05-07T18:58:22.473Z,7.28
2019-05-07T19:00:53.000Z,7.35
2019-05-07T19:03:21.938Z,7.33
2019-05-07T19:05:51.980Z,7.33
2019-05-07T19:08:22.844Z,7.78
2019-05-07T19:10:52.190Z,7.15
2019-05-07T19:13:22.242Z,8.05
2019-05-07T19:15:52.972Z,7.40
2019-05-07T19:18:22.864Z,7.12
2019-05-07T19:20:53.002Z,7.62
2019-05-07T19:23:22.469Z,7.70
2019-05-07T19:25:52.323Z,7.58
2019-05-07T19:28:22.497Z,6.97
2019-05-07T19:30:52.739Z,8.33
2019-05-07T19:33:26.798Z,7.50
2019-05-07T19:35:53.021Z,7.62
2019-05-07T19:38:22.021Z,7.20
2019-05-07T19:40:52.825Z,7.53
2019-05-07T19:43:21.497Z,7.87
2019-05-07T19:46:12.115Z,8.20
2019-05-07T19:48:40.342Z,8.03
2019-05-07T19:51:09.275Z,8.23
2019-05-07T19:53:38.223Z,8.28
2019-05-07T19:56:11.720Z,8.33
2019-05-07T19:58:41.881Z,8.40
2019-05-07T20:01:12.465Z,8.15
2019-05-07T20:03:43.326Z,8.08
2019-05-07T20:06:12.824Z,7.90
2019-05-07T20:11:33.895Z,7.95
2019-05-07T20:14:02.797Z,8.03
2019-05-07T20:16:32.584Z,9.38
2019-05-07T20:19:02.187Z,8.48
2019-05-07T20:21:32.302Z,8.60
2019-05-07T20:24:01.924Z,8.45
2019-05-07T20:26:32.636Z,8.48
2019-05-07T20:29:03.010Z,8.53
2019-05-07T20:31:33.753Z,9.13
2019-05-07T20:34:03.010Z,9.68
2019-05-07T20:36:32.687Z,8.88
2019-05-07T20:39:02.311Z,8.88
2019-05-07T20:41:32.907Z,7.95
2019-05-07T20:44:02.942Z,10.03
2019-05-07T20:46:33.066Z,7.90
2019-05-07T20:49:02.811Z,9.00
2019-05-07T20:51:32.653Z,8.45
2019-05-07T20:54:06.054Z,8.13
2019-05-07T20:59:04.574Z,8.68
2019-05-07T21:01:33.458Z,8.30
2019-05-07T21:04:02.388Z,8.58
2019-05-07T21:06:32.344Z,9.15
2019-05-07T21:09:01.495Z,8.68
2019-05-07T21:11:32.308Z,8.95
2019-05-07T21:14:03.081Z,8.50
2019-05-07T21:16:32.844Z,8.25
2019-05-07T21:19:02.172Z,7.40
2019-05-07T21:21:32.703Z,7.47
2019-05-07T21:24:02.236Z,8.28
2019-05-07T21:26:32.624Z,7.87
2019-05-07T21:29:03.094Z,8.18
2019-05-07T21:31:32.389Z,8.38
2019-05-07T21:34:03.149Z,8.48
2019-05-07T21:36:32.369Z,7.65
2019-05-07T21:39:02.265Z,8.30
2019-05-07T21:41:33.509Z,8.00
2019-05-07T21:44:01.996Z,8.13
2019-05-07T21:46:32.881Z,8.95
2019-05-07T21:49:02.598Z,8.68
2019-05-07T21:51:31.695Z,7.85
2019-05-07T21:54:03.696Z,8.48
2019-05-07T21:56:52.257Z,8.43
2019-05-07T21:59:22.648Z,8.20
2019-05-07T22:01:53.154Z,8.88
2019-05-07T22:04:22.048Z,9.23
2019-05-07T22:06:52.404Z,8.10
2019-05-07T22:09:22.328Z,8.70
2019-05-07T22:11:53.528Z,8.48
2019-05-07T22:14:22.367Z,8.75
2019-05-07T22:16:54.573Z,9.00
2019-05-07T22:19:23.207Z,8.35
2019-05-07T22:21:52.386Z,7.87
2019-05-07T22:24:22.411Z,8.50
2019-05-07T22:26:51.550Z,8.75
2019-05-07T22:29:22.565Z,8.13
2019-05-07T22:32:04.737Z,8.08
2019-05-07T22:34:37.948Z,8.35
2019-05-07T22:39:34.923Z,7.45
2019-05-07T22:42:03.852Z,8.58
2019-05-07T22:44:32.739Z,8.60
2019-05-07T22:47:03.233Z,8.70
2019-05-07T22:49:33.354Z,8.60
2019-05-07T22:52:02.487Z,8.63
2019-05-07T22:54:31.934Z,7.95
2019-05-07T22:57:03.111Z,9.18
2019-05-07T22:59:32.826Z,8.50
2019-05-07T23:02:03.033Z,8.23
2019-05-07T23:04:32.646Z,8.65
2019-05-07T23:07:02.326Z,8.28
2019-05-07T23:09:31.318Z,8.13
2019-05-07T23:12:02.192Z,8.33
2019-05-07T23:14:32.847Z,8.30
2019-05-07T23:17:02.230Z,8.65
2019-05-07T23:19:32.727Z,8.25
2019-05-07T23:22:02.767Z,8.93
2019-05-07T23:24:31.989Z,8.35
2019-05-07T23:27:00.935Z,8.13
2019-05-07T23:29:29.868Z,7.70
2019-05-07T23:31:58.751Z,7.58
2019-05-07T23:34:27.287Z,7.67
2019-05-07T23:36:55.787Z,7.62
2019-05-07T23:39:25.892Z,7.95
2019-05-07T23:42:02.248Z,7.97
2019-05-07T23:44:30.901Z,8.53
2019-05-07T23:46:59.388Z,7.42
2019-05-07T23:49:27.914Z,7.80
2019-05-07T23:51:56.397Z,8.50
2019-05-07T23:54:24.930Z,7.78
2019-05-07T23:57:05.007Z,8.08
2019-05-07T23:59:23.665Z,8.70
